createdAt,value
2018-03-31T00:01:00.237Z,47.20
2018-03-31T00:03:27.344Z,47.20
2018-03-31T00:05:54.441Z,47.70
2018-03-31T00:08:22.351Z,47.70
2018-03-31T00:10:49.494Z,47.70
2018-03-31T00:13:17.372Z,48.30
2018-03-31T00:15:45.230Z,49.10
2018-03-31T00:18:12.389Z,49.00
2018-03-31T00:20:39.489Z,48.50
2018-03-31T00:23:06.613Z,48.40
2018-03-31T00:25:33.707Z,48.50
2018-03-31T00:28:01.589Z,49.10
2018-03-31T00:30:28.688Z,49.10
2018-03-31T00:32:55.784Z,49.30
2018-03-31T00:35:23.685Z,50.10
2018-03-31T00:37:51.553Z,49.90
2018-03-31T00:40:19.441Z,50.60
2018-03-31T00:42:47.313Z,50.80
2018-03-31T00:45:15.209Z,50.80
2018-03-31T00:47:42.320Z,50.70
2018-03-31T00:50:09.446Z,50.60
2018-03-31T00:52:36.555Z,50.80
2018-03-31T00:55:04.506Z,49.60
2018-03-31T00:57:31.625Z,49.60
2018-03-31T00:59:59.525Z,47.70
2018-03-31T01:02:26.628Z,47.70
2018-03-31T01:04:53.716Z,48.20
2018-03-31T01:07:20.843Z,48.60
2018-03-31T01:09:47.951Z,48.50
2018-03-31T01:12:15.854Z,48.70
2018-03-31T01:14:42.965Z,48.70
2018-03-31T01:17:10.081Z,48.70
2018-03-31T01:19:37.180Z,49.00
2018-03-31T01:22:04.321Z,49.60
2018-03-31T01:24:31.453Z,49.90
2018-03-31T01:26:58.615Z,50.40
2018-03-31T01:29:25.770Z,50.60
2018-03-31T01:31:52.857Z,51.00
2018-03-31T01:34:19.989Z,50.70
2018-03-31T01:36:47.875Z,51.60
2018-03-31T01:39:15.766Z,50.80
2018-03-31T01:41:42.898Z,50.80
2018-03-31T01:44:10.024Z,50.50
2018-03-31T01:46:37.112Z,50.80
2018-03-31T01:49:04.240Z,50.40
2018-03-31T01:51:31.349Z,50.10
2018-03-31T01:53:58.472Z,49.50
2018-03-31T01:56:25.560Z,50.10
2018-03-31T01:58:52.674Z,49.30
2018-03-31T02:01:19.782Z,49.80
2018-03-31T02:03:46.906Z,49.40
2018-03-31T02:06:14.039Z,49.00
2018-03-31T02:08:41.155Z,49.80
2018-03-31T02:11:08.270Z,49.80
2018-03-31T02:13:35.449Z,49.80
2018-03-31T02:16:02.588Z,49.60
2018-03-31T02:18:29.679Z,49.40
2018-03-31T02:20:56.783Z,49.30
2018-03-31T02:23:23.895Z,49.20
2018-03-31T02:25:51.015Z,49.10
2018-03-31T02:28:18.096Z,49.00
2018-03-31T02:30:45.954Z,48.70
2018-03-31T02:33:13.066Z,48.70
2018-03-31T02:35:40.164Z,48.30
2018-03-31T02:38:07.268Z,48.10
2018-03-31T02:40:34.371Z,47.40
2018-03-31T02:43:01.489Z,47.00
2018-03-31T02:45:28.593Z,46.20
2018-03-31T02:47:55.715Z,46.10
2018-03-31T02:50:22.816Z,46.50
2018-03-31T02:52:49.937Z,46.10
2018-03-31T02:55:17.038Z,46.60
2018-03-31T02:57:44.161Z,45.90
2018-03-31T03:00:11.277Z,45.60
2018-03-31T03:02:38.390Z,47.10
2018-03-31T03:05:05.508Z,47.00
2018-03-31T03:07:32.602Z,48.30
2018-03-31T03:10:00.502Z,48.10
2018-03-31T03:12:27.624Z,48.00
2018-03-31T03:14:54.728Z,48.80
2018-03-31T03:17:21.829Z,49.90
2018-03-31T03:19:48.962Z,50.80
2018-03-31T03:22:16.074Z,49.80
2018-03-31T03:24:43.184Z,49.70
2018-03-31T03:27:10.303Z,50.10
2018-03-31T03:29:37.409Z,50.40
2018-03-31T03:32:04.532Z,51.40
2018-03-31T03:34:32.413Z,53.10
2018-03-31T03:37:00.296Z,52.80
2018-03-31T03:39:28.179Z,52.90
2018-03-31T03:41:56.074Z,54.90
2018-03-31T03:44:23.171Z,54.90
2018-03-31T03:46:50.298Z,55.20
2018-03-31T03:49:17.398Z,56.20
2018-03-31T03:51:44.532Z,56.00
2018-03-31T03:54:11.632Z,56.90
2018-03-31T03:56:38.728Z,58.80
2018-03-31T03:59:05.863Z,61.40
2018-03-31T04:01:32.967Z,64.60
2018-03-31T04:04:00.085Z,65.40
2018-03-31T04:06:27.571Z,67.30
2018-03-31T04:08:54.683Z,70.90
2018-03-31T04:11:21.777Z,71.20
2018-03-31T04:13:48.880Z,72.50
2018-03-31T04:16:15.973Z,71.30
2018-03-31T04:18:43.101Z,72.00
2018-03-31T04:21:10.222Z,69.70
2018-03-31T04:23:37.356Z,70.10
2018-03-31T04:26:04.472Z,70.80
2018-03-31T04:28:32.336Z,69.90
2018-03-31T04:30:59.444Z,69.90
2018-03-31T04:33:26.543Z,67.70
2018-03-31T04:35:53.675Z,67.70
2018-03-31T04:38:20.780Z,73.40
2018-03-31T04:40:47.902Z,74.90
2018-03-31T04:43:14.998Z,72.30
2018-03-31T04:45:42.126Z,72.40
2018-03-31T04:48:09.232Z,68.30
2018-03-31T04:50:36.357Z,66.20
2018-03-31T04:53:03.462Z,64.30
2018-03-31T04:55:31.328Z,63.40
2018-03-31T04:57:58.461Z,63.40
2018-03-31T05:00:25.562Z,62.00
2018-03-31T05:02:53.469Z,68.30
2018-03-31T05:05:20.573Z,68.40
2018-03-31T05:07:47.697Z,71.70
2018-03-31T05:10:14.789Z,75.00
2018-03-31T05:12:41.909Z,71.00
2018-03-31T05:15:09.774Z,66.00
2018-03-31T05:17:37.669Z,62.90
2018-03-31T05:20:04.776Z,62.90
2018-03-31T05:22:31.860Z,62.40
2018-03-31T05:24:58.963Z,59.70
2018-03-31T05:27:26.056Z,60.40
2018-03-31T05:29:53.195Z,60.80
2018-03-31T05:32:20.316Z,60.20
2018-03-31T05:34:47.454Z,58.80
2018-03-31T05:37:14.644Z,57.60
2018-03-31T05:39:41.794Z,58.00
2018-03-31T05:42:08.932Z,57.80
2018-03-31T05:44:36.041Z,59.10
2018-03-31T05:47:03.916Z,55.60
2018-03-31T05:49:31.245Z,55.60
2018-03-31T05:51:58.462Z,56.40
2018-03-31T05:54:25.565Z,56.00
2018-03-31T05:56:52.667Z,55.90
2018-03-31T05:59:20.537Z,54.80
2018-03-31T06:01:47.644Z,55.20
2018-03-31T06:04:14.743Z,54.50
2018-03-31T06:06:41.873Z,55.60
2018-03-31T06:09:08.968Z,53.70
2018-03-31T06:11:36.099Z,54.50
2018-03-31T06:14:03.210Z,56.00
2018-03-31T06:16:30.379Z,54.50
2018-03-31T06:18:57.504Z,54.10
2018-03-31T06:21:24.675Z,54.10
2018-03-31T06:23:51.799Z,54.40
2018-03-31T06:26:18.894Z,54.40
2018-03-31T06:28:46.009Z,54.20
2018-03-31T06:31:13.104Z,54.60
2018-03-31T06:33:40.218Z,53.90
2018-03-31T06:36:08.073Z,53.90
2018-03-31T06:38:35.452Z,53.70
2018-03-31T06:41:02.705Z,53.40
2018-03-31T06:43:29.828Z,52.00
2018-03-31T06:45:56.939Z,51.90
2018-03-31T06:48:24.061Z,50.60
2018-03-31T06:50:51.494Z,51.50
2018-03-31T06:53:19.366Z,50.30
2018-03-31T06:55:47.260Z,49.30
2018-03-31T06:58:14.416Z,49.30
2018-03-31T07:00:42.301Z,48.50
2018-03-31T07:03:10.234Z,47.90
2018-03-31T07:05:37.347Z,47.80
2018-03-31T07:08:05.209Z,49.10
2018-03-31T07:10:32.380Z,49.00
2018-03-31T07:13:00.934Z,47.50
2018-03-31T07:15:28.177Z,47.20
2018-03-31T07:17:55.249Z,47.80
2018-03-31T07:20:22.364Z,47.50
2018-03-31T07:22:49.490Z,47.20
2018-03-31T07:25:16.583Z,46.50
2018-03-31T07:27:44.474Z,47.00
2018-03-31T07:30:12.576Z,46.40
2018-03-31T07:32:39.701Z,46.40
2018-03-31T07:35:06.788Z,45.00
2018-03-31T07:37:34.205Z,44.80
2018-03-31T07:40:01.289Z,43.30
2018-03-31T07:42:28.416Z,44.30
2018-03-31T07:44:55.519Z,44.20
2018-03-31T07:47:23.416Z,44.10
2018-03-31T07:49:51.287Z,44.50
2018-03-31T07:52:19.157Z,43.30
2018-03-31T07:54:47.045Z,45.40
2018-03-31T07:57:14.925Z,46.40
2018-03-31T07:59:43.027Z,45.00
2018-03-31T08:02:10.119Z,45.00
2018-03-31T08:04:37.269Z,44.40
2018-03-31T08:07:04.496Z,43.90
2018-03-31T08:09:32.391Z,45.50
2018-03-31T08:12:00.287Z,45.10
2018-03-31T08:14:27.624Z,45.10
2018-03-31T08:16:54.793Z,45.20
2018-03-31T08:19:22.655Z,45.40
2018-03-31T08:21:49.765Z,45.40
2018-03-31T08:24:16.880Z,44.80
2018-03-31T08:26:44.148Z,43.80
2018-03-31T08:29:11.291Z,44.70
2018-03-31T08:31:38.420Z,43.40
2018-03-31T08:34:05.515Z,42.70
2018-03-31T08:36:32.895Z,42.90
2018-03-31T08:38:59.998Z,43.60
2018-03-31T08:41:27.196Z,42.60
2018-03-31T08:43:54.304Z,41.40
2018-03-31T08:46:22.308Z,39.70
2018-03-31T08:48:49.440Z,39.70
2018-03-31T08:51:16.602Z,38.60
2018-03-31T08:53:43.758Z,39.30
2018-03-31T08:56:11.424Z,39.40
2018-03-31T08:58:38.542Z,41.40
2018-03-31T09:01:05.629Z,40.10
2018-03-31T09:03:32.742Z,41.60
2018-03-31T09:06:01.049Z,38.50
2018-03-31T09:08:28.172Z,38.50
2018-03-31T09:10:55.553Z,37.20
2018-03-31T09:13:22.773Z,36.50
2018-03-31T09:15:49.878Z,37.50
2018-03-31T09:18:16.996Z,38.10
2018-03-31T09:20:44.131Z,37.00
2018-03-31T09:23:11.249Z,35.50
2018-03-31T09:25:38.369Z,35.40
2018-03-31T09:28:06.597Z,34.90
2018-03-31T09:30:34.681Z,33.10
2018-03-31T09:33:01.863Z,33.00
2018-03-31T09:35:29.057Z,33.80
2018-03-31T09:37:56.428Z,34.70
2018-03-31T09:40:23.574Z,34.40
2018-03-31T09:42:50.672Z,34.80
2018-03-31T09:45:17.775Z,34.50
2018-03-31T09:47:45.029Z,36.60
2018-03-31T09:50:12.397Z,37.00
2018-03-31T09:52:39.524Z,35.80
2018-03-31T09:55:06.628Z,36.00
2018-03-31T09:57:33.816Z,36.50
2018-03-31T10:00:00.940Z,35.30
2018-03-31T10:02:28.060Z,35.90
2018-03-31T10:04:55.320Z,36.90
2018-03-31T10:07:22.435Z,37.80
2018-03-31T10:09:49.573Z,39.00
2018-03-31T10:12:16.704Z,39.60
2018-03-31T10:14:43.810Z,38.80
2018-03-31T10:17:11.075Z,39.30
2018-03-31T10:19:38.223Z,39.10
2018-03-31T10:22:05.447Z,38.50
2018-03-31T10:24:32.978Z,38.20
2018-03-31T10:27:00.286Z,34.20
2018-03-31T10:29:27.411Z,33.80
2018-03-31T10:31:54.515Z,36.10
2018-03-31T10:34:21.640Z,35.30
2018-03-31T10:36:48.736Z,35.90
2018-03-31T10:39:15.888Z,35.20
2018-03-31T10:41:43.833Z,37.40
2018-03-31T10:44:10.975Z,37.40
2018-03-31T10:46:38.107Z,38.50
2018-03-31T10:49:05.206Z,37.80
2018-03-31T10:51:32.327Z,36.60
2018-03-31T10:53:59.420Z,37.90
2018-03-31T10:56:26.540Z,37.90
2018-03-31T10:58:54.408Z,40.10
2018-03-31T11:01:21.537Z,40.00
2018-03-31T11:03:48.619Z,38.50
2018-03-31T11:06:15.866Z,38.90
2018-03-31T11:08:42.968Z,39.10
2018-03-31T11:11:10.864Z,38.80
2018-03-31T11:16:13.147Z,38.30
2018-03-31T11:18:40.240Z,38.80
2018-03-31T11:21:07.349Z,41.60
2018-03-31T11:23:34.673Z,40.20
2018-03-31T11:26:01.829Z,39.60
2018-03-31T11:28:28.948Z,41.50
2018-03-31T11:30:56.040Z,41.50
2018-03-31T11:33:23.920Z,42.20
2018-03-31T11:35:51.771Z,41.50
2018-03-31T11:38:19.189Z,41.40
2018-03-31T11:40:46.282Z,41.50
2018-03-31T11:43:13.403Z,40.60
2018-03-31T11:45:40.572Z,42.30
2018-03-31T11:48:07.723Z,42.90
2018-03-31T11:50:34.820Z,41.20
2018-03-31T11:53:01.939Z,43.10
2018-03-31T11:55:29.798Z,44.10
2018-03-31T11:57:56.893Z,44.10
2018-03-31T12:00:24.008Z,45.00
2018-03-31T12:02:51.108Z,46.70
2018-03-31T12:05:18.320Z,48.00
2018-03-31T12:07:45.516Z,47.30
2018-03-31T12:10:12.814Z,47.70
2018-03-31T12:12:40.053Z,48.40
2018-03-31T12:15:07.991Z,51.10
2018-03-31T12:17:35.260Z,51.10
2018-03-31T12:20:02.423Z,50.10
2018-03-31T12:22:29.520Z,50.20
2018-03-31T12:24:56.764Z,51.60
2018-03-31T12:27:23.899Z,52.20
2018-03-31T12:29:52.077Z,52.50
2018-03-31T12:32:19.220Z,53.70
2018-03-31T12:34:46.333Z,53.70
2018-03-31T12:37:13.459Z,55.40
2018-03-31T12:39:40.558Z,56.40
2018-03-31T12:42:07.683Z,58.70
2018-03-31T12:44:34.808Z,60.10
2018-03-31T12:47:01.920Z,60.90
2018-03-31T12:49:29.026Z,63.80
2018-03-31T12:51:56.124Z,67.80
2018-03-31T12:54:23.247Z,69.30
2018-03-31T12:56:50.397Z,73.10
2018-03-31T12:59:17.511Z,76.40
2018-03-31T13:01:44.633Z,78.50
2018-03-31T13:04:11.736Z,82.00
2018-03-31T13:06:38.827Z,88.40
2018-03-31T13:09:05.931Z,97.10
2018-03-31T13:11:33.895Z,98.50
2018-03-31T13:14:01.008Z,98.50
2018-03-31T13:16:28.090Z,96.70
2018-03-31T13:18:55.195Z,96.50
2018-03-31T13:21:23.050Z,99.90
2018-03-31T13:23:50.164Z,99.90
2018-03-31T13:26:17.267Z,99.90
2018-03-31T13:28:44.352Z,99.90
2018-03-31T13:31:11.604Z,99.90
2018-03-31T13:33:38.727Z,99.90
2018-03-31T13:36:05.838Z,99.90
2018-03-31T13:38:32.950Z,99.90
2018-03-31T13:41:00.064Z,99.90
2018-03-31T13:43:27.156Z,99.90
2018-03-31T13:45:54.260Z,99.90
2018-03-31T13:48:21.346Z,99.90
2018-03-31T13:50:48.477Z,99.90
2018-03-31T13:53:15.599Z,99.90
2018-03-31T13:55:43.453Z,99.90
2018-03-31T13:58:10.685Z,99.90
2018-03-31T14:00:37.782Z,99.90
2018-03-31T14:03:04.888Z,99.90
2018-03-31T14:05:31.967Z,99.90
2018-03-31T14:07:59.073Z,99.90
2018-03-31T14:10:26.168Z,99.90
2018-03-31T14:12:54.040Z,99.80
2018-03-31T14:15:21.911Z,99.90
2018-03-31T14:17:49.816Z,97.30
2018-03-31T14:20:17.690Z,97.60
2018-03-31T14:22:44.778Z,97.60
2018-03-31T14:25:11.884Z,96.90
2018-03-31T14:27:38.976Z,95.50
2018-03-31T14:30:06.897Z,94.80
2018-03-31T14:32:33.996Z,94.80
2018-03-31T14:35:01.099Z,94.20
2018-03-31T14:37:28.188Z,93.00
2018-03-31T14:39:55.295Z,92.00
2018-03-31T14:42:23.159Z,90.00
2018-03-31T14:44:50.299Z,90.00
2018-03-31T14:47:17.387Z,91.70
2018-03-31T14:49:44.495Z,91.00
2018-03-31T14:52:11.608Z,91.40
2018-03-31T14:54:38.707Z,91.80
2018-03-31T14:57:05.827Z,91.40
2018-03-31T14:59:33.721Z,92.20
2018-03-31T15:02:01.608Z,93.50
2018-03-31T15:04:29.485Z,91.30
2018-03-31T15:06:57.367Z,93.90
2018-03-31T15:09:24.481Z,93.80
2018-03-31T15:11:51.595Z,93.50
2018-03-31T15:14:18.710Z,94.60
2018-03-31T15:16:45.837Z,93.70
2018-03-31T15:19:12.949Z,93.10
2018-03-31T15:21:40.039Z,93.90
2018-03-31T15:24:07.917Z,94.70
2018-03-31T15:26:35.771Z,94.20
2018-03-31T15:29:02.889Z,94.20
2018-03-31T15:31:29.984Z,93.80
2018-03-31T15:33:57.106Z,95.40
2018-03-31T15:36:24.193Z,95.10
2018-03-31T15:38:51.357Z,94.30
2018-03-31T15:41:18.452Z,94.30
2018-03-31T15:43:45.585Z,93.60
2018-03-31T15:46:12.681Z,92.90
2018-03-31T15:48:39.781Z,92.90
2018-03-31T15:51:06.896Z,94.90
2018-03-31T15:53:34.031Z,93.20
2018-03-31T15:56:01.177Z,92.20
2018-03-31T15:58:28.267Z,95.00
2018-03-31T16:00:55.385Z,94.20
2018-03-31T16:03:22.476Z,94.70
2018-03-31T16:05:49.601Z,93.20
2018-03-31T16:08:16.691Z,93.20
2018-03-31T16:10:43.858Z,93.80
2018-03-31T16:13:10.956Z,93.60
2018-03-31T16:15:38.064Z,93.20
2018-03-31T16:18:05.178Z,93.10
2018-03-31T16:20:32.279Z,93.50
2018-03-31T16:22:59.389Z,92.10
2018-03-31T16:25:26.493Z,93.50
2018-03-31T16:27:53.608Z,93.30
2018-03-31T16:30:20.704Z,94.70
2018-03-31T16:32:48.589Z,94.50
2018-03-31T16:35:16.449Z,95.10
2018-03-31T16:37:43.585Z,95.10
2018-03-31T16:40:10.692Z,95.10
2018-03-31T16:42:38.585Z,93.90
2018-03-31T16:45:05.686Z,93.90
2018-03-31T16:47:32.771Z,94.10
2018-03-31T16:49:59.903Z,94.20
2018-03-31T16:52:26.998Z,94.70
2018-03-31T16:54:54.104Z,94.40
2018-03-31T16:57:21.192Z,93.80
2018-03-31T16:59:48.346Z,93.00
2018-03-31T17:02:15.452Z,93.00
2018-03-31T17:04:43.334Z,93.30
2018-03-31T17:07:11.196Z,92.60
2018-03-31T17:09:38.320Z,92.60
2018-03-31T17:12:05.417Z,92.20
2018-03-31T17:14:32.552Z,92.80
2018-03-31T17:16:59.638Z,93.30
2018-03-31T17:19:26.729Z,92.20
2018-03-31T17:21:54.609Z,92.00
2018-03-31T17:24:22.468Z,91.10
2018-03-31T17:26:49.579Z,91.20
2018-03-31T17:29:16.676Z,90.80
2018-03-31T17:31:43.786Z,91.10
2018-03-31T17:34:11.651Z,90.20
2018-03-31T17:36:39.550Z,89.00
2018-03-31T17:39:06.636Z,88.90
2018-03-31T17:41:33.782Z,89.60
2018-03-31T17:44:00.907Z,90.20
2018-03-31T17:46:28.130Z,90.60
2018-03-31T17:48:55.252Z,91.40
2018-03-31T17:51:23.094Z,91.90
2018-03-31T17:53:50.227Z,91.90
2018-03-31T17:56:17.324Z,91.20
2018-03-31T17:58:44.428Z,91.00
2018-03-31T18:01:11.525Z,90.30
2018-03-31T18:03:38.661Z,90.70
2018-03-31T18:06:05.790Z,89.50
2018-03-31T18:08:32.859Z,86.70
2018-03-31T18:11:00.736Z,87.80
2018-03-31T18:13:28.593Z,87.30
2018-03-31T18:15:55.711Z,87.30
2018-03-31T18:18:22.806Z,87.60
2018-03-31T18:20:49.921Z,87.30
2018-03-31T18:23:17.017Z,86.10
2018-03-31T18:25:44.117Z,86.70
2018-03-31T18:28:11.989Z,85.60
2018-03-31T18:30:39.120Z,85.60
2018-03-31T18:33:06.213Z,87.60
2018-03-31T18:35:33.304Z,87.40
2018-03-31T18:38:00.425Z,85.90
2018-03-31T18:40:27.536Z,86.20
2018-03-31T18:42:54.645Z,87.20
2018-03-31T18:45:21.753Z,86.70
2018-03-31T18:47:48.863Z,86.60
2018-03-31T18:50:15.969Z,86.90
2018-03-31T18:52:43.847Z,88.70
2018-03-31T18:55:10.950Z,88.60
2018-03-31T18:57:38.065Z,89.00
2018-03-31T19:00:05.175Z,86.80
2018-03-31T19:02:32.267Z,86.10
2018-03-31T19:04:59.402Z,84.40
2018-03-31T19:07:26.498Z,84.00
2018-03-31T19:09:54.385Z,85.50
2018-03-31T19:12:22.273Z,86.40
2018-03-31T19:14:49.401Z,85.60
2018-03-31T19:17:16.507Z,86.40
2018-03-31T19:19:43.633Z,86.50
2018-03-31T19:22:10.769Z,88.20
2018-03-31T19:24:43.730Z,88.80
2018-03-31T19:27:11.597Z,91.10
2018-03-31T19:29:39.455Z,91.10
2018-03-31T19:32:06.597Z,91.10
2018-03-31T19:34:33.774Z,90.60
2018-03-31T19:37:00.917Z,90.40
2018-03-31T19:39:33.748Z,91.20
2018-03-31T19:42:00.840Z,92.40
2018-03-31T19:44:27.934Z,91.20
2018-03-31T19:46:55.098Z,89.70
2018-03-31T19:49:22.157Z,90.90
2018-03-31T19:51:49.264Z,91.10
2018-03-31T19:54:17.125Z,91.00
2018-03-31T19:56:44.262Z,91.00
2018-03-31T19:59:11.364Z,88.00
2018-03-31T20:01:39.214Z,90.60
2018-03-31T20:04:06.344Z,90.60
2018-03-31T20:06:33.425Z,91.70
2018-03-31T20:09:00.529Z,93.00
2018-03-31T20:11:27.607Z,93.20
2018-03-31T20:13:55.480Z,94.40
2018-03-31T20:16:23.341Z,94.30
2018-03-31T20:18:50.443Z,94.30
2018-03-31T20:21:17.528Z,95.00
2018-03-31T20:23:44.647Z,95.70
2018-03-31T20:26:12.508Z,95.90
2018-03-31T20:28:39.603Z,95.90
2018-03-31T20:31:06.798Z,95.20
2018-03-31T20:33:33.885Z,95.40
2018-03-31T20:36:01.776Z,94.10
2018-03-31T20:38:28.876Z,94.10
2018-03-31T20:40:56.033Z,94.10
2018-03-31T20:43:23.121Z,94.10
2018-03-31T20:45:50.233Z,92.90
2018-03-31T20:48:18.090Z,91.90
2018-03-31T20:50:45.211Z,91.80
2018-03-31T20:53:12.295Z,91.10
2018-03-31T20:55:39.399Z,91.80
2018-03-31T20:58:07.272Z,92.70
2018-03-31T21:00:35.130Z,93.20
2018-03-31T21:03:02.239Z,93.20
2018-03-31T21:05:29.337Z,92.50
2018-03-31T21:07:56.434Z,92.90
2018-03-31T21:10:24.291Z,91.10
2018-03-31T21:12:51.401Z,91.10
2018-03-31T21:15:18.500Z,90.60
2018-03-31T21:17:45.632Z,90.30
2018-03-31T21:20:12.722Z,91.30
2018-03-31T21:22:39.804Z,90.20
2018-03-31T21:25:06.912Z,90.10
2018-03-31T21:27:34.004Z,90.50
2018-03-31T21:30:01.117Z,90.50
2018-03-31T21:32:28.979Z,89.00
2018-03-31T21:34:56.083Z,89.00
2018-03-31T21:37:23.176Z,89.30
2018-03-31T21:39:50.290Z,88.50
2018-03-31T21:42:17.387Z,88.90
2018-03-31T21:44:44.501Z,89.40
2018-03-31T21:47:12.353Z,89.40
2018-03-31T21:49:39.436Z,89.40
2018-03-31T21:52:07.312Z,87.10
2018-03-31T21:54:34.400Z,87.10
2018-03-31T21:57:01.508Z,87.00
2018-03-31T21:59:28.611Z,86.10
2018-03-31T22:01:55.721Z,85.30
2018-03-31T22:04:22.825Z,84.60
2018-03-31T22:06:50.712Z,86.60
2018-03-31T22:09:18.569Z,87.70
2018-03-31T22:11:45.675Z,87.60
2018-03-31T22:14:18.339Z,88.10
2018-03-31T22:16:46.215Z,89.30
2018-03-31T22:19:14.078Z,88.80
2018-03-31T22:21:41.168Z,88.80
2018-03-31T22:24:08.277Z,90.40
2018-03-31T22:26:35.359Z,88.50
2018-03-31T22:29:02.461Z,89.00
2018-03-31T22:31:29.552Z,90.10
2018-03-31T22:33:56.664Z,90.60
2018-03-31T22:36:24.509Z,88.70
2018-03-31T22:38:51.629Z,88.70
2018-03-31T22:41:18.712Z,88.60
2018-03-31T22:43:46.192Z,87.40
2018-03-31T22:46:13.285Z,87.40
2018-03-31T22:48:40.395Z,87.20
2018-03-31T22:51:07.494Z,87.30
2018-03-31T22:53:34.576Z,87.60
2018-03-31T22:56:01.683Z,87.70
2018-03-31T22:58:28.778Z,86.80
2018-03-31T23:00:55.876Z,87.70
2018-03-31T23:03:23.736Z,87.80
2018-03-31T23:05:50.843Z,87.80
2018-03-31T23:08:17.932Z,89.30
2018-03-31T23:10:45.037Z,88.00
2018-03-31T23:13:12.893Z,86.80
2018-03-31T23:15:39.988Z,86.70
2018-03-31T23:18:07.073Z,87.30
2018-03-31T23:20:34.172Z,86.70
2018-03-31T23:23:01.279Z,87.10
2018-03-31T23:25:28.384Z,86.90
2018-03-31T23:27:55.497Z,86.90
2018-03-31T23:30:22.580Z,87.80
2018-03-31T23:32:49.698Z,87.30
2018-03-31T23:35:17.565Z,87.40
2018-03-31T23:37:44.674Z,87.20
2018-03-31T23:40:11.867Z,87.80
2018-03-31T23:42:38.971Z,84.50
2018-03-31T23:45:06.832Z,85.50
2018-03-31T23:47:33.958Z,85.50
2018-03-31T23:50:01.048Z,85.10
2018-03-31T23:52:28.147Z,84.50
2018-03-31T23:54:56.028Z,85.10
2018-03-31T23:57:23.123Z,85.10
2018-03-31T23:59:50.220Z,85.20
